createdAt,value
2018-12-04T00:00:40.842Z,9.92
2018-12-04T00:05:52.063Z,9.83
2018-12-04T00:11:04.097Z,9.74
2018-12-04T00:16:15.270Z,9.64
2018-12-04T00:21:29.134Z,9.58
2018-12-04T00:26:39.779Z,9.50
2018-12-04T00:31:51.634Z,9.46
2018-12-04T00:37:02.285Z,9.38
2018-12-04T00:42:13.728Z,9.33
2018-12-04T00:47:24.882Z,9.34
2018-12-04T00:52:36.824Z,9.35
2018-12-04T00:57:49.186Z,9.34
2018-12-04T01:03:01.239Z,9.27
2018-12-04T01:08:13.422Z,9.22
2018-12-04T01:13:24.269Z,9.15
2018-12-04T01:18:37.008Z,9.13
2018-12-04T01:23:50.850Z,9.13
2018-12-04T01:29:03.082Z,9.06
2018-12-04T01:34:15.503Z,9.06
2018-12-04T01:39:27.762Z,8.97
2018-12-04T01:44:38.593Z,8.96
2018-12-04T01:49:50.854Z,8.95
2018-12-04T01:55:01.378Z,8.95
2018-12-04T02:00:13.773Z,8.87
2018-12-04T02:05:24.664Z,8.84
2018-12-04T02:10:37.684Z,8.83
2018-12-04T02:15:48.872Z,8.78
2018-12-04T02:21:00.961Z,8.76
2018-12-04T02:26:11.281Z,8.75
2018-12-04T02:31:26.046Z,8.74
2018-12-04T02:36:36.478Z,8.76
2018-12-04T02:41:50.657Z,8.76
2018-12-04T02:47:01.213Z,8.71
2018-12-04T02:52:15.336Z,8.75
2018-12-04T02:57:27.882Z,8.74
2018-12-04T03:02:40.815Z,8.74
2018-12-04T03:07:51.680Z,8.73
2018-12-04T03:13:03.378Z,8.77
2018-12-04T03:18:14.827Z,8.71
2018-12-04T03:23:25.528Z,8.70
2018-12-04T03:28:37.363Z,8.67
2018-12-04T03:33:48.174Z,8.75
2018-12-04T03:39:01.759Z,8.69
2018-12-04T03:44:14.896Z,8.73
2018-12-04T03:49:26.903Z,8.70
2018-12-04T03:54:38.017Z,8.65
2018-12-04T03:59:51.586Z,8.64
2018-12-04T04:05:02.853Z,8.64
2018-12-04T04:10:14.408Z,8.62
2018-12-04T04:15:25.143Z,8.59
2018-12-04T04:20:36.726Z,8.69
2018-12-04T04:25:47.840Z,8.60
2018-12-04T04:30:59.739Z,8.62
2018-12-04T04:36:11.057Z,8.62
2018-12-04T04:41:22.481Z,8.58
2018-12-04T04:46:33.738Z,8.61
2018-12-04T04:51:47.840Z,8.61
2018-12-04T04:56:58.945Z,8.49
2018-12-04T05:02:07.609Z,8.37
2018-12-04T05:07:18.413Z,8.34
2018-12-04T05:12:32.476Z,8.34
2018-12-04T05:17:43.201Z,8.39
2018-12-04T05:22:51.502Z,8.39
2018-12-04T05:28:02.090Z,8.39
2018-12-04T05:33:15.942Z,8.36
2018-12-04T05:38:28.090Z,8.41
2018-12-04T05:43:37.473Z,8.48
2018-12-04T05:48:49.704Z,8.41
2018-12-04T05:54:00.589Z,8.40
2018-12-04T05:56:30.000Z,8.38
2018-12-04T05:58:59.857Z,8.41
2018-12-04T06:04:10.696Z,8.38
2018-12-04T06:09:23.213Z,8.35
2018-12-04T06:14:34.190Z,8.33
2018-12-04T06:19:46.561Z,8.37
2018-12-04T06:24:57.480Z,8.31
2018-12-04T06:30:11.051Z,8.22
2018-12-04T06:35:22.500Z,8.13
2018-12-04T06:40:34.455Z,8.17
2018-12-04T06:45:45.452Z,8.14
2018-12-04T06:50:56.946Z,8.15
2018-12-04T06:56:07.421Z,8.12
2018-12-04T07:01:18.963Z,8.06
2018-12-04T07:06:29.841Z,7.99
2018-12-04T07:11:41.943Z,7.92
2018-12-04T07:16:52.839Z,7.89
2018-12-04T07:19:22.241Z,7.87
2018-12-04T07:24:33.365Z,7.92
2018-12-04T07:29:46.923Z,7.94
2018-12-04T07:34:57.595Z,7.99
2018-12-04T07:40:09.255Z,7.98
2018-12-04T07:45:21.957Z,7.98
2018-12-04T07:50:34.376Z,8.02
2018-12-04T07:55:46.094Z,8.03
2018-12-04T08:00:59.011Z,8.08
2018-12-04T08:06:11.449Z,8.07
2018-12-04T08:11:24.141Z,8.10
2018-12-04T08:16:35.901Z,8.14
2018-12-04T08:21:55.261Z,8.12
2018-12-04T08:27:09.828Z,8.19
2018-12-04T08:32:23.902Z,8.34
2018-12-04T08:37:35.273Z,8.46
2018-12-04T08:42:50.189Z,8.58
2018-12-04T08:48:05.395Z,8.56
2018-12-04T08:53:17.433Z,9.05
2018-12-04T08:58:32.005Z,9.27
2018-12-04T09:03:43.033Z,9.19
2018-12-04T09:09:09.274Z,9.26
2018-12-04T09:14:21.608Z,10.31
2018-12-04T09:19:35.713Z,11.37
2018-12-04T09:24:48.933Z,11.74
2018-12-04T09:30:01.298Z,11.63
2018-12-04T09:35:12.514Z,11.83
2018-12-04T09:40:24.775Z,11.93
2018-12-04T09:45:39.007Z,11.87
2018-12-04T09:50:53.163Z,12.23
2018-12-04T09:56:06.038Z,12.83
2018-12-04T10:01:19.344Z,13.38
2018-12-04T10:06:30.221Z,13.92
2018-12-04T10:11:42.156Z,13.57
2018-12-04T10:16:53.695Z,14.06
2018-12-04T10:22:06.406Z,14.44
2018-12-04T10:27:17.377Z,14.77
2018-12-04T10:32:29.313Z,15.25
2018-12-04T10:37:36.840Z,14.53
2018-12-04T10:42:50.847Z,14.21
2018-12-04T10:48:03.758Z,13.95
2018-12-04T10:53:15.807Z,15.16
2018-12-04T10:58:27.824Z,15.89
2018-12-04T11:03:46.719Z,15.16
2018-12-04T11:08:58.554Z,14.24
2018-12-04T11:14:09.553Z,13.95
2018-12-04T11:19:21.659Z,13.20
2018-12-04T11:24:32.474Z,13.16
2018-12-04T11:29:47.067Z,13.95
2018-12-04T11:34:59.641Z,14.60
2018-12-04T11:40:18.648Z,14.90
2018-12-04T11:45:29.899Z,14.83
2018-12-04T11:50:42.165Z,14.39
2018-12-04T11:55:53.147Z,14.96
2018-12-04T11:58:22.753Z,15.13
2018-12-04T12:03:33.826Z,14.70
2018-12-04T12:06:03.154Z,14.58
2018-12-04T12:11:15.087Z,14.45
2018-12-04T12:16:26.184Z,13.67
2018-12-04T12:21:37.072Z,12.90
2018-12-04T12:26:50.211Z,12.25
2018-12-04T12:29:19.623Z,12.31
2018-12-04T12:34:30.587Z,12.04
2018-12-04T12:39:42.634Z,11.61
2018-12-04T12:44:53.626Z,11.40
2018-12-04T12:50:08.173Z,11.06
2018-12-04T12:55:19.193Z,10.97
2018-12-04T13:00:31.214Z,11.36
2018-12-04T13:05:42.280Z,11.83
2018-12-04T13:10:54.160Z,11.70
2018-12-04T13:16:05.527Z,11.81
2018-12-04T13:21:17.542Z,11.47
2018-12-04T13:26:28.581Z,11.43
2018-12-04T13:31:40.541Z,11.09
2018-12-04T13:36:52.289Z,10.83
2018-12-04T13:39:21.684Z,10.60
2018-12-04T13:44:32.667Z,10.42
2018-12-04T13:49:44.781Z,10.32
2018-12-04T13:54:55.890Z,10.16
2018-12-04T14:00:08.949Z,10.41
2018-12-04T14:05:20.892Z,10.60
2018-12-04T14:10:33.081Z,10.68
2018-12-04T14:15:47.569Z,10.49
2018-12-04T14:21:00.571Z,10.43
2018-12-04T14:26:12.909Z,10.39
2018-12-04T14:31:25.029Z,10.15
2018-12-04T14:36:36.020Z,9.81
2018-12-04T14:41:54.556Z,9.54
2018-12-04T14:47:05.401Z,9.31
2018-12-04T14:49:34.858Z,9.15
2018-12-04T14:54:48.879Z,8.99
2018-12-04T15:00:01.103Z,8.86
2018-12-04T15:05:13.987Z,8.74
2018-12-04T15:10:26.058Z,8.63
2018-12-04T15:15:38.990Z,8.52
2018-12-04T15:20:51.792Z,8.41
2018-12-04T15:26:03.342Z,8.27
2018-12-04T15:31:15.610Z,8.14
2018-12-04T15:36:28.482Z,8.05
2018-12-04T15:41:40.499Z,7.93
2018-12-04T15:46:51.462Z,7.76
2018-12-04T15:52:03.541Z,7.65
2018-12-04T15:57:14.471Z,7.53
2018-12-04T16:02:26.707Z,7.40
2018-12-04T16:07:37.570Z,7.35
2018-12-04T16:12:54.493Z,7.27
2018-12-04T16:18:06.445Z,7.18
2018-12-04T16:23:22.955Z,7.08
2018-12-04T16:28:45.951Z,7.02
2018-12-04T16:34:00.679Z,6.96
2018-12-04T16:39:19.983Z,6.90
2018-12-04T16:44:31.346Z,6.96
2018-12-04T16:49:43.365Z,6.99
2018-12-04T16:54:57.278Z,6.97
2018-12-04T17:00:12.390Z,7.03
2018-12-04T17:05:21.951Z,7.03
2018-12-04T17:10:34.231Z,7.04
2018-12-04T17:15:48.854Z,7.00
2018-12-04T17:20:57.178Z,7.01
2018-12-04T17:26:08.905Z,6.94
2018-12-04T17:31:28.575Z,7.04
2018-12-04T17:36:44.003Z,6.96
2018-12-04T17:42:11.658Z,7.04
2018-12-04T17:47:37.050Z,7.01
2018-12-04T17:52:58.837Z,7.05
2018-12-04T17:58:27.912Z,7.02
2018-12-04T18:03:39.836Z,6.99
2018-12-04T18:08:58.394Z,6.96
2018-12-04T18:14:08.182Z,6.86
2018-12-04T18:19:23.213Z,6.82
2018-12-04T18:24:36.948Z,6.81
2018-12-04T18:29:52.178Z,6.71
2018-12-04T18:35:05.994Z,6.72
2018-12-04T18:40:20.485Z,6.74
2018-12-04T18:45:37.756Z,6.84
2018-12-04T18:50:50.530Z,6.77
2018-12-04T18:56:02.167Z,6.72
2018-12-04T19:01:14.548Z,6.69
2018-12-04T19:06:25.577Z,6.72
2018-12-04T19:08:55.109Z,6.74
2018-12-04T19:14:07.799Z,6.71
2018-12-04T19:19:19.841Z,6.72
2018-12-04T19:24:34.404Z,6.66
2018-12-04T19:29:46.483Z,6.72
2018-12-04T19:34:58.688Z,6.65
2018-12-04T19:40:13.112Z,6.61
2018-12-04T19:45:27.090Z,6.49
2018-12-04T20:15:16.794Z,6.04
2018-12-04T20:20:32.253Z,5.99
2018-12-04T20:25:46.445Z,5.83
2018-12-04T20:28:15.944Z,5.79
2018-12-04T20:33:27.090Z,5.79
2018-12-04T20:38:39.747Z,5.77
2018-12-04T20:43:50.757Z,5.70
2018-12-04T20:49:05.497Z,5.68
2018-12-04T20:54:16.724Z,5.61
2018-12-04T20:59:25.648Z,5.60
2018-12-04T21:04:40.727Z,5.46
2018-12-04T21:09:53.060Z,5.40
2018-12-04T21:15:04.417Z,5.33
2018-12-04T21:20:16.889Z,5.32
2018-12-04T21:25:28.057Z,5.30
2018-12-04T21:30:59.428Z,5.22
2018-12-04T21:36:43.321Z,5.27
2018-12-04T21:42:11.742Z,5.24
2018-12-04T21:47:40.457Z,5.21
2018-12-04T21:52:52.779Z,5.19
2018-12-04T21:58:04.754Z,5.21
2018-12-04T22:03:17.199Z,5.22
2018-12-04T22:08:31.192Z,5.23
2018-12-04T22:13:42.199Z,5.27
2018-12-04T22:18:50.856Z,5.17
2018-12-04T22:24:02.944Z,5.13
2018-12-04T22:29:15.014Z,5.08
2018-12-04T22:34:26.119Z,5.09
2018-12-04T22:39:34.974Z,5.09
2018-12-04T22:44:46.203Z,5.07
2018-12-04T22:50:03.795Z,5.05
2018-12-04T22:55:17.288Z,5.14
2018-12-04T23:00:40.114Z,5.04
2018-12-04T23:05:48.187Z,4.98
2018-12-04T23:11:00.368Z,4.97
2018-12-04T23:16:12.144Z,4.92
2018-12-04T23:21:24.208Z,4.94
2018-12-04T23:26:35.098Z,4.91
2018-12-04T23:31:47.221Z,4.93
2018-12-04T23:36:58.135Z,4.99
2018-12-04T23:42:12.027Z,4.94
2018-12-04T23:47:23.143Z,4.95
2018-12-04T23:52:35.689Z,4.98
2018-12-04T23:57:48.083Z,4.96
